Time;durP1;ratioP1;P1;durP2;ratioP2;P2;SDS_P1;SDS_P2;PMS_P1;PMS_P2;Temp;Humidity;BMP_temperature;BMP_pressure;BME280_temperature;BME280_humidity;BME280_pressure;Samples;Min_cycle;Max_cycle;Signal;HPM_P1;HPM_P2
2021/10/21 00:01:13;;;;;;;6.07;3.57;;;;;;;;;;6048053;29;20239;-55
2021/10/21 00:04:35;;;;;;;8.53;4.73;;;;;;;;;;6035776;29;20241;-55
2021/10/21 00:07:56;;;;;;;8.83;4.57;;;;;;;;;;6040119;29;20225;-51
2021/10/21 00:11:17;;;;;;;6.67;4.40;;;;;;;;;;6046513;29;20206;-54
2021/10/21 00:14:38;;;;;;;7.17;4.23;;;;;;;;;;6038591;29;20254;-57
2021/10/21 00:17:58;;;;;;;8.37;4.17;;;;;;;;;;6038059;29;20635;-57
2021/10/21 00:21:20;;;;;;;5.17;3.80;;;;;;;;;;6048368;29;20206;-54
2021/10/21 00:24:40;;;;;;;7.03;3.87;;;;;;;;;;6017464;29;20669;-56
2021/10/21 00:28:01;;;;;;;5.80;4.03;;;;;;;;;;6019750;29;20238;-54
2021/10/21 00:31:21;;;;;;;6.23;4.40;;;;;;;;;;6022083;29;20208;-55
2021/10/21 00:34:42;;;;;;;7.67;4.87;;;;;;;;;;6024362;29;20270;-56
2021/10/21 00:38:03;;;;;;;8.37;5.17;;;;;;;;;;6026735;29;20316;-57
2021/10/21 00:41:24;;;;;;;6.83;4.70;;;;;;;;;;6021582;29;20199;-55
2021/10/21 00:44:45;;;;;;;7.00;4.70;;;;;;;;;;6046793;29;20254;-56
2021/10/21 00:48:06;;;;;;;4.93;4.43;;;;;;;;;;6035425;29;21116;-53
2021/10/21 00:51:27;;;;;;;5.40;4.77;;;;;;;;;;6026880;29;20215;-56
2021/10/21 00:54:49;;;;;;;4.63;4.07;;;;;;;;;;6048481;29;20301;-53
2021/10/21 00:58:10;;;;;;;4.47;3.67;;;;;;;;;;6032008;29;20601;-54
2021/10/21 01:01:33;;;;;;;9.23;3.90;;;;;;;;;;6024623;29;20496;-55
2021/10/21 01:04:53;;;;;;;4.30;3.93;;;;;;;;;;6025839;29;20310;-53
2021/10/21 01:08:14;;;;;;;4.53;3.90;;;;;;;;;;6029247;29;20252;-56
2021/10/21 01:11:36;;;;;;;4.00;3.70;;;;;;;;;;6034751;29;21602;-54
2021/10/21 01:15:13;;;;;;;5.60;4.13;;;;;;;;;;6044857;29;20592;-56
2021/10/21 01:18:34;;;;;;;5.30;3.80;;;;;;;;;;6033802;29;20242;-56
2021/10/21 01:21:57;;;;;;;9.23;4.60;;;;;;;;;;6025455;29;20241;-56
2021/10/21 01:25:18;;;;;;;5.10;4.60;;;;;;;;;;6055414;29;20214;-54
2021/10/21 01:28:39;;;;;;;4.60;4.17;;;;;;;;;;6031853;29;20963;-54
2021/10/21 01:32:00;;;;;;;6.33;4.37;;;;;;;;;;6024958;29;20241;-56
2021/10/21 01:35:21;;;;;;;5.47;4.53;;;;;;;;;;6062782;29;20663;-55
2021/10/21 01:38:43;;;;;;;6.07;4.40;;;;;;;;;;6056483;29;20233;-56
2021/10/21 01:42:03;;;;;;;4.50;4.07;;;;;;;;;;6036788;29;20239;-54
2021/10/21 01:45:25;;;;;;;4.17;3.77;;;;;;;;;;6027090;29;20215;-55
2021/10/21 01:48:45;;;;;;;16.63;4.57;;;;;;;;;;6044501;29;20238;-56
2021/10/21 01:52:06;;;;;;;6.07;4.43;;;;;;;;;;6039662;29;20242;-53
2021/10/21 01:55:28;;;;;;;4.57;4.17;;;;;;;;;;6057343;29;20222;-55
2021/10/21 01:58:49;;;;;;;9.97;4.67;;;;;;;;;;6048735;29;20226;-53
2021/10/21 02:02:09;;;;;;;4.50;3.90;;;;;;;;;;6048981;29;20238;-54
2021/10/21 02:05:30;;;;;;;4.83;4.20;;;;;;;;;;6028035;29;20384;-50
2021/10/21 02:08:50;;;;;;;4.53;4.13;;;;;;;;;;6052606;29;20233;-53
2021/10/21 02:12:12;;;;;;;6.20;4.50;;;;;;;;;;6044316;29;20619;-56
2021/10/21 02:15:33;;;;;;;6.57;4.77;;;;;;;;;;6059172;29;20489;-56
2021/10/21 02:18:53;;;;;;;4.43;3.80;;;;;;;;;;6046243;29;20333;-56
2021/10/21 02:22:14;;;;;;;5.67;4.07;;;;;;;;;;6042255;29;20772;-56
2021/10/21 02:25:34;;;;;;;5.63;4.40;;;;;;;;;;6049494;29;20202;-53
2021/10/21 02:28:56;;;;;;;4.83;4.23;;;;;;;;;;6054648;29;20234;-54
2021/10/21 02:32:17;;;;;;;4.53;4.07;;;;;;;;;;6046344;29;21006;-50
2021/10/21 02:35:37;;;;;;;6.13;4.73;;;;;;;;;;6056307;29;20585;-52
2021/10/21 02:39:00;;;;;;;5.27;4.53;;;;;;;;;;6055673;29;20639;-53
2021/10/21 02:42:20;;;;;;;7.10;4.97;;;;;;;;;;6037779;29;20512;-51
2021/10/21 02:45:42;;;;;;;4.07;3.67;;;;;;;;;;6033337;29;20195;-55
2021/10/21 02:49:03;;;;;;;6.70;4.37;;;;;;;;;;6039219;29;20237;-50
2021/10/21 02:52:24;;;;;;;5.70;5.10;;;;;;;;;;6044884;29;20324;-55
2021/10/21 02:55:44;;;;;;;5.53;3.83;;;;;;;;;;6056937;29;20218;-54
2021/10/21 02:59:05;;;;;;;5.30;3.43;;;;;;;;;;6047365;29;20229;-56
2021/10/21 03:02:27;;;;;;;6.97;4.00;;;;;;;;;;6043436;29;20233;-55
2021/10/21 03:05:47;;;;;;;9.30;5.33;;;;;;;;;;6056529;29;20203;-55
2021/10/21 03:09:08;;;;;;;4.33;3.43;;;;;;;;;;6043923;29;20556;-53
2021/10/21 03:12:29;;;;;;;4.80;3.57;;;;;;;;;;6041257;29;20234;-55
2021/10/21 03:15:49;;;;;;;11.03;9.97;;;;;;;;;;6054180;29;20569;-50
2021/10/21 03:19:11;;;;;;;7.43;5.33;;;;;;;;;;6030379;29;20239;-56
2021/10/21 03:22:31;;;;;;;5.07;4.57;;;;;;;;;;6026065;29;20230;-57
2021/10/21 03:25:52;;;;;;;4.83;4.17;;;;;;;;;;6052137;29;20214;-55
2021/10/21 03:29:13;;;;;;;8.63;4.77;;;;;;;;;;6044326;29;20892;-53
2021/10/21 03:32:33;;;;;;;5.97;4.73;;;;;;;;;;6038264;29;20269;-55
2021/10/21 03:35:55;;;;;;;5.63;5.13;;;;;;;;;;6028888;29;20578;-55
2021/10/21 03:39:16;;;;;;;5.60;4.90;;;;;;;;;;6041430;29;20237;-56
2021/10/21 03:42:37;;;;;;;6.03;4.67;;;;;;;;;;6047055;29;20590;-55
2021/10/21 03:45:57;;;;;;;5.57;5.10;;;;;;;;;;6051546;29;20210;-56
2021/10/21 03:49:18;;;;;;;5.77;4.60;;;;;;;;;;6048813;29;21222;-55
2021/10/21 03:52:40;;;;;;;6.90;5.10;;;;;;;;;;6042334;29;20229;-53
2021/10/21 03:56:00;;;;;;;5.50;5.00;;;;;;;;;;6048958;29;20206;-55
2021/10/21 03:59:21;;;;;;;6.20;5.60;;;;;;;;;;6023479;29;20238;-55
2021/10/21 04:02:42;;;;;;;6.77;5.40;;;;;;;;;;6025629;29;20242;-55
2021/10/21 04:06:02;;;;;;;5.53;5.03;;;;;;;;;;6054203;29;20206;-53
2021/10/21 04:09:24;;;;;;;6.87;5.63;;;;;;;;;;6038555;29;20245;-55
2021/10/21 04:12:45;;;;;;;4.83;4.17;;;;;;;;;;6038119;29;20235;-55
2021/10/21 04:16:06;;;;;;;9.57;5.40;;;;;;;;;;6022330;29;20207;-51
2021/10/21 04:19:27;;;;;;;6.60;5.93;;;;;;;;;;6048132;29;20237;-53
2021/10/21 04:22:48;;;;;;;8.40;3.73;;;;;;;;;;6044692;29;20233;-51
2021/10/21 04:26:10;;;;;;;3.80;2.30;;;;;;;;;;6050969;29;20194;-51
2021/10/21 04:29:30;;;;;;;2.37;1.60;;;;;;;;;;6054631;29;20246;-55
2021/10/21 04:32:51;;;;;;;2.63;1.50;;;;;;;;;;6046010;29;20237;-53
2021/10/21 04:36:12;;;;;;;2.30;1.47;;;;;;;;;;6052421;29;20214;-54
2021/10/21 04:39:33;;;;;;;1.93;1.80;;;;;;;;;;6041209;29;20230;-54
2021/10/21 04:42:55;;;;;;;1.90;1.80;;;;;;;;;;6043364;29;20233;-55
2021/10/21 04:46:15;;;;;;;1.93;1.57;;;;;;;;;;6050796;29;20210;-51
2021/10/21 04:49:36;;;;;;;2.13;1.70;;;;;;;;;;6037960;29;20848;-53
2021/10/21 04:52:56;;;;;;;3.53;2.00;;;;;;;;;;6047654;29;20265;-56
2021/10/21 04:56:17;;;;;;;2.50;1.50;;;;;;;;;;6049009;29;20215;-53
2021/10/21 04:59:39;;;;;;;3.13;1.80;;;;;;;;;;6038325;29;20233;-54
2021/10/21 05:03:06;;;;;;;5.30;1.93;;;;;;;;;;6028776;29;20237;-52
2021/10/21 05:06:27;;;;;;;2.20;1.90;;;;;;;;;;6023447;29;20195;-54
2021/10/21 05:09:48;;;;;;;2.63;1.50;;;;;;;;;;6019186;29;20318;-55
2021/10/21 05:13:09;;;;;;;2.37;1.83;;;;;;;;;;6029227;29;20265;-55
2021/10/21 05:16:31;;;;;;;5.90;1.60;;;;;;;;;;6048023;29;20233;-53
2021/10/21 05:19:51;;;;;;;2.03;1.77;;;;;;;;;;6046967;29;20645;-52
2021/10/21 05:23:12;;;;;;;6.50;1.47;;;;;;;;;;6041436;29;20233;-51
2021/10/21 05:26:32;;;;;;;1.47;1.03;;;;;;;;;;6047162;29;20210;-54
2021/10/21 05:29:53;;;;;;;3.40;1.60;;;;;;;;;;6023542;29;20222;-54
2021/10/21 05:33:15;;;;;;;3.00;1.33;;;;;;;;;;6019664;29;20256;-54
2021/10/21 05:36:35;;;;;;;2.67;1.90;;;;;;;;;;6018943;29;21816;-55
2021/10/21 05:39:56;;;;;;;2.80;1.47;;;;;;;;;;6045551;29;20202;-56
2021/10/21 05:43:17;;;;;;;2.00;1.30;;;;;;;;;;6048304;29;20611;-56
2021/10/21 05:46:38;;;;;;;2.13;1.27;;;;;;;;;;6031864;29;20214;-51
2021/10/21 05:49:59;;;;;;;2.97;1.40;;;;;;;;;;6029859;29;20674;-54
2021/10/21 05:53:20;;;;;;;1.63;1.50;;;;;;;;;;6038158;29;20233;-53
2021/10/21 05:56:41;;;;;;;2.13;1.93;;;;;;;;;;6033987;29;20283;-53
2021/10/21 06:00:01;;;;;;;1.60;1.50;;;;;;;;;;6060368;29;20221;-53
2021/10/21 06:03:36;;;;;;;4.23;1.50;;;;;;;;;;6027283;29;20242;-54
2021/10/21 06:06:57;;;;;;;1.77;1.30;;;;;;;;;;6019850;29;20264;-51
2021/10/21 06:10:18;;;;;;;1.43;1.00;;;;;;;;;;6059040;29;20610;-54
2021/10/21 06:13:39;;;;;;;3.83;2.13;;;;;;;;;;6033218;29;22005;-55
2021/10/21 06:17:00;;;;;;;3.67;1.80;;;;;;;;;;6016178;29;20246;-55
2021/10/21 06:20:21;;;;;;;2.93;1.10;;;;;;;;;;6024123;29;20226;-54
2021/10/21 06:23:43;;;;;;;3.83;1.47;;;;;;;;;;6049682;29;20229;-53
2021/10/21 06:27:03;;;;;;;5.73;1.77;;;;;;;;;;6040389;29;20230;-51
2021/10/21 06:30:24;;;;;;;3.67;1.73;;;;;;;;;;6051195;29;20210;-54
2021/10/21 06:33:45;;;;;;;2.67;1.60;;;;;;;;;;6036546;29;20233;-52
2021/10/21 06:37:07;;;;;;;4.10;1.70;;;;;;;;;;6017928;29;20779;-53
2021/10/21 06:40:28;;;;;;;8.10;1.97;;;;;;;;;;6034366;29;20203;-54
2021/10/21 06:43:49;;;;;;;3.97;1.33;;;;;;;;;;6045352;29;20237;-55
2021/10/21 06:47:10;;;;;;;3.00;1.30;;;;;;;;;;6038188;29;20241;-55
2021/10/21 06:50:31;;;;;;;4.07;1.90;;;;;;;;;;6048630;29;20230;-55
2021/10/21 06:53:52;;;;;;;6.67;1.80;;;;;;;;;;6018062;29;20334;-53
2021/10/21 06:57:14;;;;;;;4.57;1.80;;;;;;;;;;6012373;29;20238;-55
2021/10/21 07:00:37;;;;;;;4.93;1.97;;;;;;;;;;6027089;29;20234;-51
2021/10/21 07:04:02;;;;;;;4.27;1.87;;;;;;;;;;6029447;29;20348;-54
2021/10/21 07:07:23;;;;;;;3.10;1.17;;;;;;;;;;6047999;29;20619;-51
2021/10/21 07:10:43;;;;;;;3.07;1.27;;;;;;;;;;6054372;29;20477;-52
2021/10/21 07:14:05;;;;;;;2.63;1.40;;;;;;;;;;6054490;29;20262;-53
2021/10/21 07:17:26;;;;;;;2.87;1.57;;;;;;;;;;6041653;29;20635;-48
2021/10/21 07:20:47;;;;;;;1.73;0.97;;;;;;;;;;6052631;29;20210;-55
2021/10/21 07:24:07;;;;;;;1.87;1.30;;;;;;;;;;6054036;29;20226;-52
2021/10/21 07:27:28;;;;;;;2.20;1.00;;;;;;;;;;6043897;29;20233;-53
2021/10/21 07:30:54;;;;;;;3.50;1.20;;;;;;;;;;6045843;29;20640;-54
2021/10/21 07:34:15;;;;;;;2.13;1.50;;;;;;;;;;6042096;29;20242;-55
2021/10/21 07:37:36;;;;;;;1.13;0.97;;;;;;;;;;6042831;29;20654;-56
2021/10/21 07:40:56;;;;;;;0.60;0.57;;;;;;;;;;6050530;29;20202;-55
2021/10/21 07:44:17;;;;;;;2.37;0.67;;;;;;;;;;6036054;29;20636;-48
2021/10/21 07:47:39;;;;;;;2.10;1.20;;;;;;;;;;6044537;29;20256;-52
2021/10/21 07:51:00;;;;;;;1.67;0.90;;;;;;;;;;6054097;29;20477;-54
2021/10/21 07:54:23;;;;;;;3.47;1.33;;;;;;;;;;6049463;29;20230;-52
2021/10/21 07:57:44;;;;;;;2.50;0.90;;;;;;;;;;6037701;29;20279;-54
2021/10/21 08:01:04;;;;;;;1.60;1.00;;;;;;;;;;6018362;29;20642;-51
2021/10/21 08:04:26;;;;;;;1.93;0.80;;;;;;;;;;6039039;29;20234;-53
2021/10/21 08:07:47;;;;;;;1.43;0.83;;;;;;;;;;6041349;29;20237;-55
2021/10/21 08:11:08;;;;;;;0.70;0.60;;;;;;;;;;6047723;29;20198;-50
2021/10/21 08:14:29;;;;;;;1.87;1.17;;;;;;;;;;6047689;29;20226;-54
2021/10/21 08:17:50;;;;;;;1.60;0.97;;;;;;;;;;6039184;29;20238;-54
2021/10/21 08:21:12;;;;;;;2.40;0.60;;;;;;;;;;6019615;29;20215;-52
2021/10/21 08:24:33;;;;;;;1.90;0.60;;;;;;;;;;6050645;29;20221;-50
2021/10/21 08:27:53;;;;;;;0.93;0.70;;;;;;;;;;6035736;29;20257;-56
2021/10/21 08:31:14;;;;;;;1.57;1.00;;;;;;;;;;6022076;29;20203;-53
2021/10/21 08:34:35;;;;;;;2.50;1.40;;;;;;;;;;6033708;29;20259;-52
2021/10/21 08:37:58;;;;;;;0.93;0.70;;;;;;;;;;6034799;29;20234;-55
2021/10/21 08:41:19;;;;;;;0.53;0.50;;;;;;;;;;6042265;29;20218;-52
2021/10/21 08:44:40;;;;;;;0.83;0.77;;;;;;;;;;6042711;29;20229;-53
2021/10/21 08:48:02;;;;;;;2.70;0.80;;;;;;;;;;6043276;29;20238;-51
2021/10/21 08:51:22;;;;;;;1.87;0.53;;;;;;;;;;6048014;29;20214;-53
2021/10/21 08:54:44;;;;;;;3.53;1.07;;;;;;;;;;6023850;29;20295;-53
2021/10/21 08:58:05;;;;;;;4.03;1.13;;;;;;;;;;6024703;29;20234;-54
2021/10/21 09:01:33;;;;;;;1.70;0.70;;;;;;;;;;6023073;29;20250;-55
2021/10/21 09:05:08;;;;;;;2.53;1.00;;;;;;;;;;6048124;29;20213;-52
2021/10/21 09:08:29;;;;;;;2.77;0.97;;;;;;;;;;6026630;29;20235;-56
2021/10/21 09:12:01;;;;;;;1.90;0.87;;;;;;;;;;6012190;29;20207;-55
2021/10/21 09:15:23;;;;;;;2.03;0.93;;;;;;;;;;6032709;29;20650;-54
2021/10/21 09:18:45;;;;;;;1.83;1.07;;;;;;;;;;6041451;29;20241;-56
2021/10/21 09:22:06;;;;;;;3.00;0.97;;;;;;;;;;6038018;29;20608;-55
2021/10/21 09:25:29;;;;;;;3.00;1.53;;;;;;;;;;6031513;29;20199;-55
2021/10/21 09:28:51;;;;;;;3.50;1.40;;;;;;;;;;6050781;29;20229;-56
2021/10/21 09:32:12;;;;;;;5.23;1.50;;;;;;;;;;6038298;29;20505;-56
2021/10/21 09:35:35;;;;;;;6.93;2.40;;;;;;;;;;6046203;29;20290;-57
2021/10/21 09:38:55;;;;;;;7.23;1.97;;;;;;;;;;6037203;29;20608;-51
2021/10/21 09:42:17;;;;;;;3.77;1.50;;;;;;;;;;6035739;29;20248;-59
2021/10/21 09:45:40;;;;;;;8.27;2.47;;;;;;;;;;6048532;29;20214;-55
2021/10/21 09:49:17;;;;;;;4.13;2.00;;;;;;;;;;6052399;29;20265;-57
2021/10/21 09:52:37;;;;;;;6.67;2.07;;;;;;;;;;6038740;29;20225;-54
2021/10/21 09:56:02;;;;;;;10.80;2.20;;;;;;;;;;6052287;29;21699;-57
2021/10/21 09:59:24;;;;;;;4.67;2.13;;;;;;;;;;6045338;29;20230;-55
2021/10/21 10:02:46;;;;;;;6.80;2.03;;;;;;;;;;6045876;29;20263;-56
2021/10/21 10:06:07;;;;;;;5.67;2.07;;;;;;;;;;6050796;29;20528;-52
2021/10/21 10:09:32;;;;;;;7.80;1.40;;;;;;;;;;6053323;29;20229;-56
2021/10/21 10:12:53;;;;;;;10.70;2.17;;;;;;;;;;6044883;29;20237;-56
2021/10/21 10:16:13;;;;;;;5.30;1.87;;;;;;;;;;6046545;29;20218;-56
2021/10/21 10:19:36;;;;;;;2.63;1.37;;;;;;;;;;6047774;29;20253;-49
2021/10/21 10:22:57;;;;;;;3.30;1.40;;;;;;;;;;6047620;29;20882;-51
2021/10/21 10:26:33;;;;;;;4.77;1.60;;;;;;;;;;6047226;29;20214;-55
2021/10/21 10:29:53;;;;;;;2.37;1.23;;;;;;;;;;6037607;29;20269;-55
2021/10/21 10:33:14;;;;;;;1.80;1.20;;;;;;;;;;6050639;29;20524;-51
2021/10/21 10:36:36;;;;;;;4.53;2.33;;;;;;;;;;6044575;29;20581;-50
2021/10/21 10:39:57;;;;;;;2.80;1.03;;;;;;;;;;6050196;29;20526;-53
2021/10/21 10:43:18;;;;;;;1.83;1.43;;;;;;;;;;6030886;29;20222;-52
2021/10/21 10:46:48;;;;;;;2.97;1.43;;;;;;;;;;6017805;29;20207;-54
2021/10/21 10:50:13;;;;;;;2.83;0.97;;;;;;;;;;6052828;29;20194;-51
2021/10/21 10:53:45;;;;;;;3.67;1.03;;;;;;;;;;6043475;29;20249;-52
2021/10/21 10:57:06;;;;;;;4.37;2.20;;;;;;;;;;6027729;29;20237;-54
2021/10/21 11:00:38;;;;;;;5.63;1.40;;;;;;;;;;6047046;29;20217;-55
2021/10/21 11:03:58;;;;;;;5.13;1.57;;;;;;;;;;6053912;29;20237;-55
2021/10/21 11:07:19;;;;;;;11.67;2.60;;;;;;;;;;6038192;29;20229;-52
2021/10/21 11:10:42;;;;;;;6.80;2.40;;;;;;;;;;6031034;29;20215;-53
2021/10/21 11:14:03;;;;;;;11.87;2.30;;;;;;;;;;6025185;29;20578;-55
2021/10/21 11:17:40;;;;;;;3.17;1.63;;;;;;;;;;6012596;29;20241;-54
2021/10/21 11:21:02;;;;;;;3.17;1.23;;;;;;;;;;6027321;29;20206;-55
2021/10/21 11:24:42;;;;;;;6.97;1.90;;;;;;;;;;6016743;29;20239;-55
2021/10/21 11:28:04;;;;;;;5.70;2.17;;;;;;;;;;6020548;29;20261;-55
2021/10/21 11:31:25;;;;;;;7.57;1.77;;;;;;;;;;6022932;29;20199;-57
2021/10/21 11:34:48;;;;;;;6.55;1.77;;;;;;;;;;6022340;29;20310;-55
2021/10/21 11:38:11;;;;;;;6.80;2.17;;;;;;;;;;6019133;29;20229;-56
2021/10/21 11:41:32;;;;;;;9.10;2.08;;;;;;;;;;6021467;29;20222;-56
2021/10/21 11:45:01;;;;;;;6.72;2.60;;;;;;;;;;6026322;29;20231;-53
2021/10/21 11:48:25;;;;;;;6.30;2.08;;;;;;;;;;6024750;29;20659;-52
2021/10/21 11:51:46;;;;;;;7.30;2.03;;;;;;;;;;6007890;29;20211;-55
2021/10/21 11:55:07;;;;;;;5.43;1.90;;;;;;;;;;6049202;29;20226;-52
2021/10/21 11:58:30;;;;;;;8.83;2.20;;;;;;;;;;6045863;29;20314;-55
2021/10/21 12:01:52;;;;;;;5.03;1.83;;;;;;;;;;6038509;29;20230;-56
2021/10/21 12:05:13;;;;;;;9.13;2.47;;;;;;;;;;6056951;29;20195;-54
2021/10/21 12:08:33;;;;;;;4.17;1.77;;;;;;;;;;6052690;29;20253;-57
2021/10/21 12:12:00;;;;;;;5.87;2.27;;;;;;;;;;6026489;29;20234;-54
2021/10/21 12:15:21;;;;;;;2.83;1.50;;;;;;;;;;6025745;29;20223;-58
2021/10/21 12:18:42;;;;;;;5.40;1.47;;;;;;;;;;6024149;29;20229;-54
2021/10/21 12:22:04;;;;;;;5.27;1.53;;;;;;;;;;6017043;29;20246;-53
2021/10/21 12:25:32;;;;;;;7.23;1.80;;;;;;;;;;6039013;29;20214;-55
2021/10/21 12:28:53;;;;;;;6.83;1.37;;;;;;;;;;6034610;29;20241;-53
2021/10/21 12:32:14;;;;;;;4.40;1.50;;;;;;;;;;6026123;29;20238;-55
2021/10/21 12:35:37;;;;;;;11.20;2.93;;;;;;;;;;6029200;29;20369;-55
2021/10/21 12:39:04;;;;;;;3.97;1.30;;;;;;;;;;6022148;29;20235;-53
2021/10/21 12:42:27;;;;;;;6.60;2.47;;;;;;;;;;6025356;29;20237;-55
2021/10/21 12:45:48;;;;;;;6.93;2.00;;;;;;;;;;6049670;29;20292;-54
2021/10/21 12:49:10;;;;;;;7.07;2.27;;;;;;;;;;6046719;29;20242;-57
2021/10/21 12:52:33;;;;;;;6.70;2.13;;;;;;;;;;6040328;29;20237;-54
2021/10/21 12:55:53;;;;;;;4.77;1.93;;;;;;;;;;6044287;29;20755;-55
2021/10/21 12:59:20;;;;;;;7.10;2.87;;;;;;;;;;6026194;29;20235;-54
2021/10/21 13:02:41;;;;;;;7.93;2.10;;;;;;;;;;6026052;29;20225;-55
2021/10/21 13:06:02;;;;;;;6.03;2.00;;;;;;;;;;6046693;29;20194;-54
2021/10/21 13:09:24;;;;;;;6.30;2.37;;;;;;;;;;6022936;29;20234;-57
2021/10/21 13:12:45;;;;;;;8.80;2.07;;;;;;;;;;6024943;29;20608;-54
2021/10/21 13:16:06;;;;;;;8.00;2.87;;;;;;;;;;6046877;29;20226;-56
2021/10/21 13:19:27;;;;;;;10.70;2.50;;;;;;;;;;6030663;29;20239;-56
2021/10/21 13:22:47;;;;;;;6.07;2.07;;;;;;;;;;6036557;29;20249;-55
2021/10/21 13:26:09;;;;;;;10.60;2.40;;;;;;;;;;6048554;29;20233;-55
2021/10/21 13:29:30;;;;;;;9.23;2.43;;;;;;;;;;6049857;29;20234;-56
2021/10/21 13:32:52;;;;;;;10.97;3.17;;;;;;;;;;6032594;29;20236;-52
2021/10/21 13:36:13;;;;;;;9.37;2.40;;;;;;;;;;6051391;29;20305;-55
2021/10/21 13:39:39;;;;;;;5.00;2.17;;;;;;;;;;6023568;29;20282;-58
2021/10/21 13:43:01;;;;;;;6.57;1.63;;;;;;;;;;6035594;29;20240;-55
2021/10/21 13:46:21;;;;;;;7.27;2.17;;;;;;;;;;6053249;29;20203;-55
2021/10/21 13:49:42;;;;;;;5.83;2.33;;;;;;;;;;6053079;29;20320;-54
2021/10/21 13:53:04;;;;;;;13.23;2.60;;;;;;;;;;6052999;29;20237;-49
2021/10/21 13:56:24;;;;;;;7.03;2.73;;;;;;;;;;6055425;29;20491;-56
2021/10/21 13:59:46;;;;;;;7.70;2.07;;;;;;;;;;6048958;29;20313;-51
2021/10/21 14:03:07;;;;;;;9.67;2.03;;;;;;;;;;6045705;29;20305;-51
2021/10/21 14:06:30;;;;;;;8.23;2.37;;;;;;;;;;6051303;29;20195;-50
2021/10/21 14:09:51;;;;;;;3.87;2.33;;;;;;;;;;6045356;29;20269;-55
2021/10/21 14:13:12;;;;;;;6.80;2.00;;;;;;;;;;6048591;29;20316;-50
2021/10/21 14:16:35;;;;;;;7.83;2.77;;;;;;;;;;6048574;29;20666;-56
2021/10/21 14:19:55;;;;;;;13.47;2.83;;;;;;;;;;6046927;29;20613;-53
2021/10/21 14:23:15;;;;;;;7.70;2.23;;;;;;;;;;6046680;29;20545;-55
2021/10/21 14:26:39;;;;;;;8.90;2.83;;;;;;;;;;6037200;29;20312;-54
2021/10/21 14:29:59;;;;;;;6.43;2.27;;;;;;;;;;6040444;29;20233;-55
2021/10/21 14:33:21;;;;;;;7.23;1.93;;;;;;;;;;6037952;29;20237;-56
2021/10/21 14:36:42;;;;;;;5.33;2.00;;;;;;;;;;6023181;29;20621;-54
2021/10/21 14:40:03;;;;;;;6.70;2.23;;;;;;;;;;6048920;29;20285;-56
2021/10/21 14:43:23;;;;;;;2.50;1.60;;;;;;;;;;6051650;29;20229;-55
2021/10/21 14:46:45;;;;;;;4.03;2.07;;;;;;;;;;6030865;29;20586;-55
2021/10/21 14:50:07;;;;;;;7.17;1.60;;;;;;;;;;6052775;29;20202;-54
2021/10/21 14:53:28;;;;;;;6.57;1.80;;;;;;;;;;6027471;29;20791;-55
2021/10/21 14:56:48;;;;;;;4.80;1.57;;;;;;;;;;6018065;29;20252;-55
2021/10/21 15:00:09;;;;;;;6.87;1.83;;;;;;;;;;6057515;29;20317;-54
2021/10/21 15:03:33;;;;;;;7.70;1.50;;;;;;;;;;6023089;29;20622;-53
2021/10/21 15:07:34;;;;;;;9.23;2.47;;;;;;;;;;5997770;29;20614;-53
2021/10/21 15:11:21;;;;;;;2.80;1.20;;;;;;;;;;6025152;29;20222;-54
2021/10/21 15:25:37;;;;;;;6.47;2.10;;;;;;;;;;6003741;29;20207;-55
2021/10/21 15:28:58;;;;;;;3.40;1.50;;;;;;;;;;6000972;29;20242;-57
2021/10/21 15:32:18;;;;;;;5.53;1.63;;;;;;;;;;6012868;29;20779;-57
2021/10/21 15:35:39;;;;;;;4.57;1.50;;;;;;;;;;6036190;29;20620;-58
2021/10/21 15:39:02;;;;;;;3.27;1.47;;;;;;;;;;6004868;29;20262;-56
2021/10/21 15:42:24;;;;;;;6.53;2.20;;;;;;;;;;6011737;29;21164;-52
2021/10/21 15:45:48;;;;;;;4.27;1.60;;;;;;;;;;6031869;29;20262;-54
2021/10/21 15:49:30;;;;;;;3.50;1.57;;;;;;;;;;6030325;29;20242;-55
2021/10/21 16:11:12;;;;;;;3.67;1.80;;;;;;;;;;6027641;29;20203;-55
2021/10/21 16:14:37;;;;;;;7.73;2.67;;;;;;;;;;6037691;29;20257;-57
2021/10/21 16:17:59;;;;;;;4.83;1.50;;;;;;;;;;6038154;29;20229;-56
2021/10/21 16:21:22;;;;;;;12.17;3.00;;;;;;;;;;6049912;29;20245;-53
2021/10/21 16:24:49;;;;;;;3.23;2.00;;;;;;;;;;6047345;29;20274;-52
2021/10/21 16:28:12;;;;;;;5.37;3.20;;;;;;;;;;6034277;29;20758;-52
2021/10/21 16:31:34;;;;;;;8.33;3.37;;;;;;;;;;6016609;29;20673;-50
2021/10/21 16:34:55;;;;;;;3.63;2.50;;;;;;;;;;6023297;29;20237;-50
2021/10/21 16:38:16;;;;;;;9.43;2.73;;;;;;;;;;6037349;29;20247;-61
2021/10/21 16:41:38;;;;;;;8.97;3.30;;;;;;;;;;6031416;29;20199;-61
2021/10/21 16:44:59;;;;;;;7.93;3.17;;;;;;;;;;6061023;29;20210;-61
2021/10/21 16:48:22;;;;;;;6.33;2.60;;;;;;;;;;6037916;29;20564;-60
2021/10/21 16:51:42;;;;;;;9.47;2.77;;;;;;;;;;6016492;29;20198;-61
2021/10/21 16:55:02;;;;;;;10.77;3.50;;;;;;;;;;6055132;29;20285;-60
2021/10/21 16:58:23;;;;;;;8.27;2.70;;;;;;;;;;6045525;29;20732;-61
2021/10/21 17:01:44;;;;;;;7.20;2.43;;;;;;;;;;6032786;29;20222;-60
2021/10/21 17:05:08;;;;;;;7.50;2.50;;;;;;;;;;6059297;29;20205;-63
2021/10/21 17:08:29;;;;;;;11.50;3.70;;;;;;;;;;6042400;29;20233;-60
2021/10/21 17:11:50;;;;;;;10.87;3.83;;;;;;;;;;6036357;29;20301;-59
2021/10/21 17:15:11;;;;;;;10.87;3.33;;;;;;;;;;6054338;29;20826;-59
2021/10/21 17:18:31;;;;;;;7.00;3.20;;;;;;;;;;6044289;29;20323;-63
2021/10/21 17:21:53;;;;;;;11.30;2.60;;;;;;;;;;6036662;29;20198;-66
2021/10/21 17:25:14;;;;;;;7.00;2.23;;;;;;;;;;6058295;29;21340;-64
2021/10/21 17:28:34;;;;;;;10.20;2.97;;;;;;;;;;6048747;29;21208;-62
2021/10/21 17:31:55;;;;;;;8.33;2.53;;;;;;;;;;6037494;29;20214;-63
2021/10/21 17:35:16;;;;;;;5.07;2.20;;;;;;;;;;6023989;29;20301;-65
2021/10/21 17:38:38;;;;;;;9.57;2.70;;;;;;;;;;6016107;29;20250;-65
2021/10/21 17:41:59;;;;;;;9.00;3.53;;;;;;;;;;6011533;29;20237;-64
2021/10/21 17:45:20;;;;;;;15.13;4.47;;;;;;;;;;6057035;29;20222;-64
2021/10/21 17:48:41;;;;;;;10.90;3.80;;;;;;;;;;6039069;29;20240;-64
2021/10/21 17:52:02;;;;;;;8.30;3.30;;;;;;;;;;6018796;29;20237;-65
2021/10/21 17:55:23;;;;;;;10.83;2.77;;;;;;;;;;6058692;29;20206;-65
2021/10/21 17:58:44;;;;;;;6.63;2.40;;;;;;;;;;6051522;29;20324;-66
2021/10/21 18:02:05;;;;;;;6.00;2.53;;;;;;;;;;6030572;29;20241;-64
2021/10/21 18:05:25;;;;;;;7.70;3.63;;;;;;;;;;6056818;29;20212;-66
2021/10/21 18:08:46;;;;;;;9.27;3.03;;;;;;;;;;6049265;29;20702;-64
2021/10/21 18:12:08;;;;;;;7.93;2.67;;;;;;;;;;6041294;29;20313;-64
2021/10/21 18:15:29;;;;;;;9.23;2.90;;;;;;;;;;6032104;29;20229;-65
2021/10/21 18:18:50;;;;;;;10.27;3.10;;;;;;;;;;6049321;29;20233;-64
2021/10/21 18:22:12;;;;;;;6.63;2.27;;;;;;;;;;6045666;29;20264;-64
2021/10/21 18:25:33;;;;;;;9.47;2.97;;;;;;;;;;6061183;29;20198;-64
2021/10/21 18:28:55;;;;;;;9.80;2.63;;;;;;;;;;6035351;29;20261;-65
2021/10/21 18:32:16;;;;;;;7.47;3.03;;;;;;;;;;6026098;29;20255;-65
2021/10/21 18:35:37;;;;;;;7.80;2.73;;;;;;;;;;6064811;29;20194;-65
2021/10/21 18:38:58;;;;;;;7.07;3.10;;;;;;;;;;6054509;29;20265;-65
2021/10/21 18:42:19;;;;;;;9.97;3.20;;;;;;;;;;6038723;29;20262;-66
2021/10/21 18:45:41;;;;;;;6.97;2.17;;;;;;;;;;6029129;29;20227;-65
2021/10/21 18:49:02;;;;;;;11.73;2.37;;;;;;;;;;6032454;29;20645;-65
2021/10/21 18:52:23;;;;;;;10.77;3.07;;;;;;;;;;6026925;29;20237;-64
2021/10/21 18:55:44;;;;;;;6.10;2.43;;;;;;;;;;6050577;29;20214;-65
2021/10/21 18:59:04;;;;;;;7.43;2.73;;;;;;;;;;6050079;29;20422;-65
2021/10/21 19:02:26;;;;;;;7.23;2.50;;;;;;;;;;6030872;29;20245;-63
2021/10/21 19:05:46;;;;;;;8.00;2.53;;;;;;;;;;6031617;29;20195;-64
2021/10/21 19:09:07;;;;;;;10.63;2.27;;;;;;;;;;6047583;29;20542;-64
2021/10/21 19:12:28;;;;;;;6.90;2.50;;;;;;;;;;6046969;29;20233;-65
2021/10/21 19:15:49;;;;;;;6.80;2.70;;;;;;;;;;6056761;29;20327;-65
2021/10/21 19:19:13;;;;;;;7.33;2.83;;;;;;;;;;6044637;29;20238;-65
2021/10/21 19:22:34;;;;;;;6.03;1.87;;;;;;;;;;6047610;29;20228;-64
2021/10/21 19:25:55;;;;;;;5.77;1.80;;;;;;;;;;6055883;29;20308;-65
2021/10/21 19:29:15;;;;;;;6.33;2.13;;;;;;;;;;6032975;29;20321;-65
2021/10/21 19:32:36;;;;;;;6.40;1.77;;;;;;;;;;6028547;29;20230;-64
2021/10/21 19:35:58;;;;;;;5.23;2.40;;;;;;;;;;6052668;29;20221;-66
2021/10/21 19:39:18;;;;;;;7.33;3.03;;;;;;;;;;6030595;29;20231;-66
2021/10/21 19:42:40;;;;;;;7.47;2.47;;;;;;;;;;6027921;29;20709;-64
2021/10/21 19:46:02;;;;;;;6.37;2.00;;;;;;;;;;6050273;29;20648;-65
2021/10/21 19:49:22;;;;;;;8.63;2.47;;;;;;;;;;6051315;29;20237;-65
2021/10/21 19:52:44;;;;;;;13.00;3.33;;;;;;;;;;6044541;29;20260;-65
2021/10/21 19:56:05;;;;;;;7.80;1.93;;;;;;;;;;6060340;29;20198;-64
2021/10/21 19:59:26;;;;;;;5.90;2.47;;;;;;;;;;6026468;29;20766;-65
2021/10/21 20:02:47;;;;;;;4.33;2.10;;;;;;;;;;6020900;29;20227;-64
2021/10/21 20:06:09;;;;;;;9.93;2.83;;;;;;;;;;6034577;29;20230;-64
2021/10/21 20:09:32;;;;;;;4.73;2.27;;;;;;;;;;6022224;29;20230;-65
2021/10/21 20:13:00;;;;;;;7.10;2.97;;;;;;;;;;6036811;29;20331;-65
2021/10/21 20:16:22;;;;;;;7.27;2.77;;;;;;;;;;6050538;29;20651;-64
2021/10/21 20:19:43;;;;;;;6.33;3.07;;;;;;;;;;6043384;29;20677;-65
2021/10/21 20:23:04;;;;;;;5.47;2.07;;;;;;;;;;6029365;29;20696;-65
2021/10/21 20:26:26;;;;;;;8.47;2.03;;;;;;;;;;6022598;29;20192;-64
2021/10/21 20:29:47;;;;;;;11.03;2.90;;;;;;;;;;6026778;29;20273;-65
2021/10/21 20:33:11;;;;;;;7.40;2.77;;;;;;;;;;6041559;29;20948;-64
2021/10/21 20:36:31;;;;;;;8.00;2.83;;;;;;;;;;6056363;29;20620;-65
2021/10/21 20:39:52;;;;;;;10.17;2.83;;;;;;;;;;6022832;29;20595;-64